Time;durP1;ratioP1;P1;durP2;ratioP2;P2;SDS_P1;SDS_P2;PMS_P1;PMS_P2;Temp;Humidity;BMP_temperature;BMP_pressure;BME280_temperature;BME280_humidity;BME280_pressure;Samples;Min_cycle;Max_cycle;Signal;HPM_P1;HPM_P2
2024/03/20 00:01:55;;;;;;;19.58;11.68;;;;;;;;;;5074278;28;20390;-70
2024/03/20 00:04:21;;;;;;;18.77;11.93;;;;;;;;;;5076419;28;20094;-71
2024/03/20 00:06:48;;;;;;;19.60;10.98;;;;;;;;;;5058962;28;20024;-70
2024/03/20 00:09:14;;;;;;;18.13;10.88;;;;;;;;;;5091170;28;20490;-70
2024/03/20 00:11:40;;;;;;;16.13;11.57;;;;;;;;;;5079315;28;20028;-70
2024/03/20 00:14:07;;;;;;;20.60;11.02;;;;;;;;;;5076854;28;20131;-71
2024/03/20 00:16:34;;;;;;;17.08;11.07;;;;;;;;;;5092592;28;20078;-70
2024/03/20 00:19:01;;;;;;;26.77;12.35;;;;;;;;;;5072590;28;20020;-70
2024/03/20 00:21:27;;;;;;;19.17;12.45;;;;;;;;;;5075441;28;20020;-70
2024/03/20 00:23:53;;;;;;;20.63;12.50;;;;;;;;;;5087631;28;20105;-70
2024/03/20 00:26:19;;;;;;;18.85;12.20;;;;;;;;;;5093701;28;20039;-70
2024/03/20 00:28:45;;;;;;;20.13;12.45;;;;;;;;;;5074674;28;20051;-70
2024/03/20 00:31:11;;;;;;;17.20;11.60;;;;;;;;;;5081020;28;20056;-70
2024/03/20 00:33:37;;;;;;;17.27;12.10;;;;;;;;;;5095141;28;20046;-70
2024/03/20 00:36:04;;;;;;;22.08;11.80;;;;;;;;;;5058725;28;20111;-70
2024/03/20 00:38:30;;;;;;;18.38;12.93;;;;;;;;;;5076864;28;20040;-71
2024/03/20 00:40:56;;;;;;;17.33;11.57;;;;;;;;;;5061313;28;20024;-70
2024/03/20 00:43:22;;;;;;;17.05;10.90;;;;;;;;;;5094907;28;20043;-70
2024/03/20 00:45:48;;;;;;;20.45;12.48;;;;;;;;;;5075363;28;20493;-70
2024/03/20 00:48:14;;;;;;;19.25;11.82;;;;;;;;;;5085203;28;20025;-70
2024/03/20 00:50:40;;;;;;;16.80;11.30;;;;;;;;;;5088796;28;20023;-69
2024/03/20 00:53:06;;;;;;;20.17;12.02;;;;;;;;;;5094311;22;20120;-66
2024/03/20 00:55:32;;;;;;;18.45;11.45;;;;;;;;;;5072496;28;20104;-67
2024/03/20 00:57:58;;;;;;;18.05;12.75;;;;;;;;;;5073017;28;20115;-68
2024/03/20 01:00:24;;;;;;;19.60;11.63;;;;;;;;;;5056417;28;20028;-67
2024/03/20 01:02:50;;;;;;;15.70;11.80;;;;;;;;;;5072370;28;20032;-68
2024/03/20 01:05:16;;;;;;;22.27;12.43;;;;;;;;;;5071663;28;20345;-67
2024/03/20 01:07:42;;;;;;;19.85;13.73;;;;;;;;;;5072496;28;20035;-67
2024/03/20 01:10:08;;;;;;;18.30;13.02;;;;;;;;;;5072432;28;20044;-69
2024/03/20 01:12:35;;;;;;;20.92;11.80;;;;;;;;;;5071929;28;20103;-68
2024/03/20 01:15:01;;;;;;;21.15;13.45;;;;;;;;;;5070868;28;20020;-68
2024/03/20 01:17:27;;;;;;;19.13;12.63;;;;;;;;;;5070988;28;20101;-66
2024/03/20 01:19:53;;;;;;;16.98;12.43;;;;;;;;;;5072217;28;20452;-66
2024/03/20 01:22:20;;;;;;;19.42;13.18;;;;;;;;;;5071116;28;20524;-68
2024/03/20 01:24:46;;;;;;;21.20;13.30;;;;;;;;;;5072264;28;20135;-67
2024/03/20 01:27:12;;;;;;;21.20;12.75;;;;;;;;;;5070341;28;20032;-66
2024/03/20 01:29:38;;;;;;;21.02;13.45;;;;;;;;;;5065799;28;20033;-67
2024/03/20 01:32:04;;;;;;;19.00;12.57;;;;;;;;;;5051799;28;20031;-68
2024/03/20 01:34:30;;;;;;;18.65;12.20;;;;;;;;;;5071101;28;20040;-67
2024/03/20 01:36:56;;;;;;;18.67;12.23;;;;;;;;;;5061008;28;20079;-68
2024/03/20 01:39:22;;;;;;;21.58;12.82;;;;;;;;;;5052665;28;20369;-67
2024/03/20 01:41:48;;;;;;;18.85;11.77;;;;;;;;;;5069903;28;20031;-66
2024/03/20 01:44:14;;;;;;;17.38;12.23;;;;;;;;;;5056748;28;20021;-68
2024/03/20 01:46:40;;;;;;;18.15;12.55;;;;;;;;;;5055608;28;20403;-68
2024/03/20 01:49:07;;;;;;;15.27;11.55;;;;;;;;;;5071873;28;20100;-68
2024/03/20 01:51:33;;;;;;;16.23;11.25;;;;;;;;;;5052979;28;20051;-68
2024/03/20 01:54:00;;;;;;;18.23;11.10;;;;;;;;;;5061916;28;20032;-68
2024/03/20 01:56:27;;;;;;;15.75;11.10;;;;;;;;;;5066640;28;20133;-68
2024/03/20 01:58:53;;;;;;;20.60;11.55;;;;;;;;;;5052298;28;20048;-66
2024/03/20 02:01:19;;;;;;;18.88;10.57;;;;;;;;;;5052642;28;20106;-68
2024/03/20 02:03:45;;;;;;;16.73;10.35;;;;;;;;;;5064757;28;20025;-67
2024/03/20 02:06:21;;;;;;;17.40;9.55;;;;;;;;;;5075927;28;20055;-67
2024/03/20 02:08:48;;;;;;;13.55;9.82;;;;;;;;;;5059117;28;20093;-67
2024/03/20 02:11:15;;;;;;;18.90;9.80;;;;;;;;;;5073182;28;20483;-68
2024/03/20 02:13:44;;;;;;;15.90;10.18;;;;;;;;;;5068033;28;20028;-67
2024/03/20 02:16:11;;;;;;;18.25;11.88;;;;;;;;;;5055498;28;20048;-67
2024/03/20 02:18:36;;;;;;;16.50;10.90;;;;;;;;;;5070885;28;20031;-69
2024/03/20 02:21:06;;;;;;;20.80;12.25;;;;;;;;;;5067353;28;20024;-68
2024/03/20 02:23:32;;;;;;;19.77;12.25;;;;;;;;;;5054746;28;20029;-68
2024/03/20 02:25:58;;;;;;;17.10;12.48;;;;;;;;;;5071683;28;20121;-69
2024/03/20 02:28:24;;;;;;;16.13;12.07;;;;;;;;;;5056741;28;20068;-68
2024/03/20 02:30:50;;;;;;;20.70;13.57;;;;;;;;;;5057162;28;20430;-68
2024/03/20 02:33:16;;;;;;;19.23;13.32;;;;;;;;;;5081345;28;20025;-68
2024/03/20 02:35:42;;;;;;;19.10;13.07;;;;;;;;;;5067536;28;20025;-66
2024/03/20 02:38:08;;;;;;;18.38;12.60;;;;;;;;;;5074039;28;20039;-68
2024/03/20 02:40:34;;;;;;;22.63;14.07;;;;;;;;;;5092515;28;20017;-68
2024/03/20 02:43:00;;;;;;;19.17;13.00;;;;;;;;;;5074609;28;20457;-68
2024/03/20 02:45:26;;;;;;;21.83;14.98;;;;;;;;;;5082293;28;20028;-67
2024/03/20 02:47:52;;;;;;;23.30;13.80;;;;;;;;;;5072752;28;20024;-67
2024/03/20 02:50:18;;;;;;;20.42;13.75;;;;;;;;;;5052843;28;20033;-69
2024/03/20 02:52:44;;;;;;;21.92;14.00;;;;;;;;;;5066385;28;20043;-68
2024/03/20 02:55:10;;;;;;;21.27;13.70;;;;;;;;;;5071649;28;20020;-68
2024/03/20 02:57:36;;;;;;;22.45;14.20;;;;;;;;;;5074777;28;20061;-68
2024/03/20 03:00:03;;;;;;;22.58;13.02;;;;;;;;;;5054408;28;20492;-68
2024/03/20 03:02:29;;;;;;;20.75;12.98;;;;;;;;;;5064829;28;20028;-68
2024/03/20 03:04:55;;;;;;;20.15;14.20;;;;;;;;;;5069153;28;20024;-68
2024/03/20 03:07:26;;;;;;;20.20;13.30;;;;;;;;;;5054838;28;20033;-68
2024/03/20 03:09:52;;;;;;;17.75;12.75;;;;;;;;;;5058826;28;20025;-68
2024/03/20 03:12:17;;;;;;;20.15;13.05;;;;;;;;;;5066649;28;20139;-68
2024/03/20 03:14:43;;;;;;;22.35;13.85;;;;;;;;;;5074429;28;20039;-68
2024/03/20 03:17:10;;;;;;;19.33;13.27;;;;;;;;;;5055361;28;20029;-69
2024/03/20 03:19:36;;;;;;;20.77;13.32;;;;;;;;;;5057565;28;20035;-69
2024/03/20 03:22:02;;;;;;;20.05;13.20;;;;;;;;;;5069638;28;20025;-67
2024/03/20 03:24:28;;;;;;;26.63;14.10;;;;;;;;;;5050433;28;20361;-66
2024/03/20 03:26:54;;;;;;;18.70;12.63;;;;;;;;;;5063181;28;20119;-69
2024/03/20 03:29:20;;;;;;;18.55;13.73;;;;;;;;;;5070850;28;20090;-68
2024/03/20 03:31:47;;;;;;;19.48;13.77;;;;;;;;;;5069824;28;20559;-67
2024/03/20 03:34:13;;;;;;;23.50;14.35;;;;;;;;;;5066255;28;20020;-69
2024/03/20 03:36:39;;;;;;;19.45;14.25;;;;;;;;;;5062299;28;20092;-69
2024/03/20 03:39:05;;;;;;;28.58;13.45;;;;;;;;;;5067208;28;20086;-67
2024/03/20 03:41:33;;;;;;;19.85;14.15;;;;;;;;;;5073625;28;20435;-66
2024/03/20 03:43:59;;;;;;;20.08;13.35;;;;;;;;;;5072893;28;20109;-68
2024/03/20 03:46:25;;;;;;;20.90;13.55;;;;;;;;;;5074446;28;20024;-68
2024/03/20 03:48:52;;;;;;;21.92;13.40;;;;;;;;;;5074428;28;20047;-67
2024/03/20 03:51:18;;;;;;;17.23;13.23;;;;;;;;;;5073757;28;20109;-67
2024/03/20 03:53:44;;;;;;;19.90;13.68;;;;;;;;;;5073932;28;20059;-67
2024/03/20 03:56:10;;;;;;;22.60;13.27;;;;;;;;;;5074014;28;20032;-67
2024/03/20 03:58:36;;;;;;;19.30;14.00;;;;;;;;;;5073724;28;20408;-68
2024/03/20 04:01:02;;;;;;;23.50;14.80;;;;;;;;;;5073614;28;20517;-67
2024/03/20 04:03:29;;;;;;;16.30;12.90;;;;;;;;;;5073921;28;20028;-69
2024/03/20 04:05:57;;;;;;;21.90;13.45;;;;;;;;;;5074605;28;20113;-68
2024/03/20 04:08:23;;;;;;;23.75;14.63;;;;;;;;;;5074003;28;20112;-68
2024/03/20 04:10:49;;;;;;;26.75;14.00;;;;;;;;;;5072822;28;20081;-68
2024/03/20 04:13:15;;;;;;;18.77;14.02;;;;;;;;;;5073684;28;20032;-68
2024/03/20 04:15:43;;;;;;;29.58;15.20;;;;;;;;;;5073223;28;20032;-68
2024/03/20 04:18:09;;;;;;;20.15;13.82;;;;;;;;;;5073588;28;20561;-67
2024/03/20 04:20:35;;;;;;;23.45;15.68;;;;;;;;;;5073664;28;20058;-68
2024/03/20 04:23:02;;;;;;;17.38;12.63;;;;;;;;;;5072921;28;20036;-67
2024/03/20 04:25:28;;;;;;;26.52;14.35;;;;;;;;;;5073477;28;20339;-68
2024/03/20 04:27:55;;;;;;;21.70;14.18;;;;;;;;;;5073138;28;20107;-68
2024/03/20 04:30:21;;;;;;;24.35;13.50;;;;;;;;;;5072469;28;20029;-68
2024/03/20 04:32:47;;;;;;;21.77;13.88;;;;;;;;;;5068044;28;20032;-68
2024/03/20 04:35:13;;;;;;;22.25;14.07;;;;;;;;;;5054214;28;20020;-67
2024/03/20 04:37:39;;;;;;;24.13;14.50;;;;;;;;;;5073416;28;20032;-68
2024/03/20 04:40:06;;;;;;;20.60;13.70;;;;;;;;;;5073154;28;20499;-69
2024/03/20 04:42:33;;;;;;;17.30;13.10;;;;;;;;;;5072584;28;20021;-69
2024/03/20 04:44:59;;;;;;;19.52;13.77;;;;;;;;;;5075008;28;20024;-67
2024/03/20 04:47:25;;;;;;;18.98;13.55;;;;;;;;;;5078787;28;20024;-68
2024/03/20 04:49:51;;;;;;;21.65;13.93;;;;;;;;;;5081974;28;20024;-68
2024/03/20 04:52:18;;;;;;;17.95;12.90;;;;;;;;;;5079653;28;20509;-68
2024/03/20 04:54:44;;;;;;;23.95;14.00;;;;;;;;;;5087723;28;20068;-67
2024/03/20 04:57:10;;;;;;;22.67;14.80;;;;;;;;;;5081608;28;20458;-69
2024/03/20 04:59:36;;;;;;;21.35;13.25;;;;;;;;;;5079999;28;20020;-68
2024/03/20 05:02:02;;;;;;;17.95;13.48;;;;;;;;;;5077260;28;20036;-69
2024/03/20 05:04:28;;;;;;;27.38;14.27;;;;;;;;;;5075370;28;20039;-68
2024/03/20 05:06:54;;;;;;;20.88;13.25;;;;;;;;;;5067903;28;20100;-69
2024/03/20 05:09:20;;;;;;;18.60;12.93;;;;;;;;;;5072976;28;20436;-67
2024/03/20 05:11:46;;;;;;;19.23;12.82;;;;;;;;;;5063090;28;20043;-66
2024/03/20 05:14:12;;;;;;;20.77;14.20;;;;;;;;;;5052638;28;20053;-68
2024/03/20 05:16:38;;;;;;;21.70;13.32;;;;;;;;;;5073026;28;20449;-67
2024/03/20 05:19:07;;;;;;;19.67;12.50;;;;;;;;;;5073252;28;20103;-68
2024/03/20 05:21:33;;;;;;;25.35;15.88;;;;;;;;;;5071954;28;20021;-69
2024/03/20 05:23:59;;;;;;;24.90;14.30;;;;;;;;;;5073293;28;20514;-66
2024/03/20 05:26:25;;;;;;;25.02;14.35;;;;;;;;;;5061340;28;20040;-68
2024/03/20 05:28:51;;;;;;;19.20;13.10;;;;;;;;;;5055665;28;20024;-68
2024/03/20 05:31:30;;;;;;;20.27;13.52;;;;;;;;;;5052494;28;20094;-68
2024/03/20 05:33:56;;;;;;;23.17;13.82;;;;;;;;;;5052916;28;20021;-69
2024/03/20 05:36:22;;;;;;;26.35;13.88;;;;;;;;;;5053691;28;20055;-68
2024/03/20 05:38:49;;;;;;;19.77;13.90;;;;;;;;;;5054123;28;20044;-68
2024/03/20 05:41:15;;;;;;;20.58;13.48;;;;;;;;;;5053901;28;20025;-68
2024/03/20 05:43:41;;;;;;;18.98;13.88;;;;;;;;;;5056072;28;20040;-68
2024/03/20 05:46:10;;;;;;;21.10;13.38;;;;;;;;;;5055151;28;20032;-68
2024/03/20 05:48:39;;;;;;;25.55;15.52;;;;;;;;;;5054151;28;20033;-68
2024/03/20 05:51:08;;;;;;;22.35;14.18;;;;;;;;;;5054001;28;20468;-69
2024/03/20 05:53:34;;;;;;;25.85;14.63;;;;;;;;;;5052296;28;20116;-67
2024/03/20 05:56:00;;;;;;;23.10;14.82;;;;;;;;;;5052043;28;20128;-67
2024/03/20 05:58:26;;;;;;;22.55;15.38;;;;;;;;;;5060471;28;20353;-67
2024/03/20 06:00:52;;;;;;;23.55;14.50;;;;;;;;;;5060869;28;20102;-67
2024/03/20 06:03:19;;;;;;;23.20;15.35;;;;;;;;;;5065429;28;20074;-68
2024/03/20 06:05:47;;;;;;;27.40;15.27;;;;;;;;;;5063805;28;20028;-69
2024/03/20 06:08:13;;;;;;;25.30;15.10;;;;;;;;;;5073002;28;20066;-67
2024/03/20 06:10:39;;;;;;;29.77;16.23;;;;;;;;;;5071528;28;20036;-68
2024/03/20 06:13:05;;;;;;;29.88;17.27;;;;;;;;;;5072044;28;20438;-68
2024/03/20 06:15:31;;;;;;;25.88;15.57;;;;;;;;;;5066471;28;20419;-70
2024/03/20 06:17:58;;;;;;;30.08;16.67;;;;;;;;;;5065599;28;20055;-69
2024/03/20 06:20:24;;;;;;;19.48;13.75;;;;;;;;;;5065391;28;20061;-69
2024/03/20 06:22:51;;;;;;;20.00;13.65;;;;;;;;;;5060283;28;20114;-72
2024/03/20 06:25:17;;;;;;;19.80;13.68;;;;;;;;;;5058172;28;20016;-70
2024/03/20 06:27:43;;;;;;;24.50;13.60;;;;;;;;;;5062856;28;20028;-70
2024/03/20 06:30:13;;;;;;;20.40;13.32;;;;;;;;;;5061278;28;20025;-70
2024/03/20 06:32:39;;;;;;;19.58;13.25;;;;;;;;;;5062929;28;20029;-69
2024/03/20 06:35:06;;;;;;;17.10;11.75;;;;;;;;;;5060353;28;20027;-68
2024/03/20 06:37:32;;;;;;;14.18;9.93;;;;;;;;;;5059830;28;20375;-67
2024/03/20 06:39:58;;;;;;;17.77;10.00;;;;;;;;;;5060713;28;20035;-67
2024/03/20 06:42:24;;;;;;;16.70;10.68;;;;;;;;;;5059205;28;20029;-68
2024/03/20 06:44:50;;;;;;;15.93;8.98;;;;;;;;;;5061519;28;20122;-70
2024/03/20 06:47:20;;;;;;;21.27;11.00;;;;;;;;;;5059661;28;20018;-70
2024/03/20 06:49:48;;;;;;;27.15;10.52;;;;;;;;;;5066857;28;20024;-69
2024/03/20 06:52:20;;;;;;;15.13;9.57;;;;;;;;;;5069658;28;20031;-67
2024/03/20 06:54:46;;;;;;;12.77;9.50;;;;;;;;;;5069029;28;20102;-68
2024/03/20 06:57:13;;;;;;;12.23;8.18;;;;;;;;;;5068625;28;20452;-68
2024/03/20 06:59:39;;;;;;;14.18;8.88;;;;;;;;;;5071463;28;20046;-66
2024/03/20 07:02:06;;;;;;;16.13;10.05;;;;;;;;;;5070786;28;20097;-68
2024/03/20 07:04:32;;;;;;;14.18;9.77;;;;;;;;;;5070287;28;20024;-69
2024/03/20 07:06:58;;;;;;;14.05;8.93;;;;;;;;;;5068994;28;20449;-68
2024/03/20 07:09:25;;;;;;;11.30;8.38;;;;;;;;;;5069524;28;20052;-67
2024/03/20 07:11:51;;;;;;;15.43;7.78;;;;;;;;;;5069978;28;20028;-68
2024/03/20 07:14:18;;;;;;;13.85;8.77;;;;;;;;;;5070015;28;20024;-67
2024/03/20 07:16:45;;;;;;;15.45;8.65;;;;;;;;;;5070406;28;20081;-68
2024/03/20 07:19:11;;;;;;;14.57;9.18;;;;;;;;;;5070579;28;20021;-67
2024/03/20 07:21:38;;;;;;;21.08;9.50;;;;;;;;;;5069786;28;20123;-66
2024/03/20 07:24:05;;;;;;;17.17;8.93;;;;;;;;;;5070079;28;20028;-68
2024/03/20 07:26:31;;;;;;;12.02;8.65;;;;;;;;;;5070290;28;20032;-67
2024/03/20 07:28:57;;;;;;;13.77;9.10;;;;;;;;;;5070217;28;20021;-67
2024/03/20 07:31:23;;;;;;;13.65;8.23;;;;;;;;;;5069644;28;20052;-67
2024/03/20 07:33:50;;;;;;;13.55;9.23;;;;;;;;;;5070683;28;20033;-67
2024/03/20 07:36:16;;;;;;;13.38;8.88;;;;;;;;;;5071009;28;20025;-66
2024/03/20 07:38:42;;;;;;;12.43;9.40;;;;;;;;;;5070842;28;20070;-66
2024/03/20 07:41:08;;;;;;;14.48;8.25;;;;;;;;;;5069645;28;20032;-68
2024/03/20 07:43:37;;;;;;;13.60;8.93;;;;;;;;;;5070234;28;20025;-68
2024/03/20 07:46:03;;;;;;;14.65;8.90;;;;;;;;;;5068951;28;20025;-66
2024/03/20 07:48:31;;;;;;;17.42;9.38;;;;;;;;;;5070246;28;20032;-69
2024/03/20 07:50:57;;;;;;;11.05;9.02;;;;;;;;;;5069453;28;20105;-68
2024/03/20 07:53:24;;;;;;;13.57;8.80;;;;;;;;;;5069858;28;20139;-68
2024/03/20 07:55:50;;;;;;;13.65;9.15;;;;;;;;;;5068417;28;20021;-67
2024/03/20 07:58:17;;;;;;;17.90;8.52;;;;;;;;;;5069488;28;20478;-68
2024/03/20 08:00:44;;;;;;;16.65;9.73;;;;;;;;;;5068408;28;20025;-68
2024/03/20 08:03:11;;;;;;;12.60;9.00;;;;;;;;;;5062799;28;20033;-70
2024/03/20 08:05:37;;;;;;;13.85;8.88;;;;;;;;;;5050080;28;20472;-67
2024/03/20 08:08:04;;;;;;;11.23;8.82;;;;;;;;;;5050002;28;20037;-66
2024/03/20 08:10:30;;;;;;;11.90;9.00;;;;;;;;;;5056417;28;20472;-68
2024/03/20 08:12:56;;;;;;;14.68;9.80;;;;;;;;;;5058262;28;20073;-67
2024/03/20 08:15:22;;;;;;;13.23;8.48;;;;;;;;;;5060742;28;20108;-67
2024/03/20 08:17:48;;;;;;;15.25;10.25;;;;;;;;;;5059016;28;20024;-66
2024/03/20 08:20:14;;;;;;;12.02;9.27;;;;;;;;;;5059249;28;20016;-67
2024/03/20 08:22:41;;;;;;;16.70;10.10;;;;;;;;;;5058419;28;20063;-67
2024/03/20 08:25:07;;;;;;;14.18;9.65;;;;;;;;;;5058526;28;20036;-68
2024/03/20 08:27:34;;;;;;;12.75;9.40;;;;;;;;;;5062721;28;20124;-68
2024/03/20 08:30:02;;;;;;;12.65;9.50;;;;;;;;;;5063955;28;20767;-67
2024/03/20 08:32:30;;;;;;;14.25;10.02;;;;;;;;;;5061340;28;20048;-67
2024/03/20 08:34:56;;;;;;;14.68;10.15;;;;;;;;;;5062417;28;20030;-67
2024/03/20 08:37:22;;;;;;;13.88;10.05;;;;;;;;;;5061661;28;20063;-68
2024/03/20 08:39:48;;;;;;;14.43;9.95;;;;;;;;;;5062928;28;20481;-68
2024/03/20 08:42:14;;;;;;;12.60;9.27;;;;;;;;;;5063711;28;20017;-67
2024/03/20 08:44:41;;;;;;;14.35;10.57;;;;;;;;;;5069261;28;20032;-68
2024/03/20 08:47:07;;;;;;;12.45;8.90;;;;;;;;;;5072929;28;20028;-68
2024/03/20 08:49:37;;;;;;;20.05;9.30;;;;;;;;;;5066384;28;20108;-67
2024/03/20 08:52:06;;;;;;;14.52;9.77;;;;;;;;;;5061722;28;20119;-68
2024/03/20 08:54:33;;;;;;;11.90;8.77;;;;;;;;;;5066381;28;20032;-68
2024/03/20 08:57:00;;;;;;;10.80;8.50;;;;;;;;;;5071604;28;20500;-73
2024/03/20 08:59:27;;;;;;;14.63;8.73;;;;;;;;;;5071485;28;20451;-67
2024/03/20 09:01:53;;;;;;;11.85;7.75;;;;;;;;;;5066924;28;20107;-69
2024/03/20 09:04:19;;;;;;;10.32;8.32;;;;;;;;;;5055783;28;20506;-67
2024/03/20 09:06:45;;;;;;;13.18;8.73;;;;;;;;;;5067041;28;20050;-68
2024/03/20 09:09:11;;;;;;;13.93;9.40;;;;;;;;;;5059050;28;20082;-68
2024/03/20 09:11:37;;;;;;;13.50;9.65;;;;;;;;;;5060742;28;20475;-67
2024/03/20 09:14:03;;;;;;;10.27;8.30;;;;;;;;;;5065944;28;20075;-67
2024/03/20 09:16:29;;;;;;;20.38;8.60;;;;;;;;;;5054156;28;20110;-67
2024/03/20 09:18:55;;;;;;;12.10;8.23;;;;;;;;;;5067551;28;20079;-67
2024/03/20 09:21:22;;;;;;;10.07;7.75;;;;;;;;;;5059481;28;20058;-67
2024/03/20 09:23:48;;;;;;;14.07;8.73;;;;;;;;;;5059554;28;20025;-67
2024/03/20 09:26:14;;;;;;;10.88;7.75;;;;;;;;;;5067951;28;20095;-70
2024/03/20 09:28:40;;;;;;;14.10;9.15;;;;;;;;;;5055451;28;20447;-68
2024/03/20 09:31:08;;;;;;;15.32;8.77;;;;;;;;;;5064911;28;20017;-69
2024/03/20 09:33:34;;;;;;;10.20;8.85;;;;;;;;;;5061767;28;20071;-67
2024/03/20 09:36:00;;;;;;;16.08;9.35;;;;;;;;;;5057414;28;20044;-68
2024/03/20 09:38:26;;;;;;;11.32;9.32;;;;;;;;;;5068059;28;20055;-69
2024/03/20 09:40:57;;;;;;;16.90;10.05;;;;;;;;;;5053680;28;20048;-67
2024/03/20 09:43:23;;;;;;;14.10;9.50;;;;;;;;;;5061360;28;20432;-68
2024/03/20 09:45:50;;;;;;;15.48;9.57;;;;;;;;;;5063923;28;20029;-67
2024/03/20 09:48:16;;;;;;;11.10;9.13;;;;;;;;;;5060405;28;20062;-67
2024/03/20 09:50:42;;;;;;;13.40;9.50;;;;;;;;;;5054222;28;20017;-67
2024/03/20 09:53:08;;;;;;;17.27;8.88;;;;;;;;;;5064129;28;20024;-68
2024/03/20 09:55:37;;;;;;;10.65;9.50;;;;;;;;;;5059842;28;20062;-68
2024/03/20 09:58:03;;;;;;;11.73;7.88;;;;;;;;;;5057007;28;20051;-68
2024/03/20 10:00:29;;;;;;;12.48;9.50;;;;;;;;;;5070171;28;20403;-68
2024/03/20 10:02:55;;;;;;;14.95;9.23;;;;;;;;;;5071016;28;20017;-69
2024/03/20 10:05:21;;;;;;;13.40;9.32;;;;;;;;;;5071252;28;20024;-68
2024/03/20 10:07:48;;;;;;;13.60;9.02;;;;;;;;;;5071338;28;20410;-67
2024/03/20 10:10:14;;;;;;;15.38;9.75;;;;;;;;;;5071790;28;20060;-68
2024/03/20 10:12:41;;;;;;;11.90;9.00;;;;;;;;;;5071315;28;20035;-68
2024/03/20 10:15:10;;;;;;;14.18;9.52;;;;;;;;;;5071517;28;20024;-67
2024/03/20 10:17:37;;;;;;;14.00;9.55;;;;;;;;;;5071593;28;20433;-68
2024/03/20 10:20:16;;;;;;;12.27;9.02;;;;;;;;;;5071649;28;20333;-67
2024/03/20 10:22:43;;;;;;;17.83;10.25;;;;;;;;;;5071028;28;20089;-67
2024/03/20 10:25:13;;;;;;;17.67;9.38;;;;;;;;;;5071573;28;20427;-68
2024/03/20 10:27:39;;;;;;;13.00;9.77;;;;;;;;;;5070895;28;20025;-69
2024/03/20 10:30:11;;;;;;;13.82;9.00;;;;;;;;;;5070859;28;20020;-68
2024/03/20 10:32:40;;;;;;;12.57;8.88;;;;;;;;;;5070469;28;20119;-68
2024/03/20 10:35:08;;;;;;;12.65;9.70;;;;;;;;;;5071698;28;20028;-67
2024/03/20 10:37:34;;;;;;;15.88;9.02;;;;;;;;;;5071245;28;20020;-68
2024/03/20 10:40:00;;;;;;;13.05;8.75;;;;;;;;;;5070348;28;20051;-68
2024/03/20 10:42:28;;;;;;;11.32;8.93;;;;;;;;;;5069389;28;20024;-68
2024/03/20 10:44:55;;;;;;;17.23;8.07;;;;;;;;;;5071928;28;20020;-68
2024/03/20 10:47:21;;;;;;;18.05;8.85;;;;;;;;;;5071351;28;20024;-68
2024/03/20 10:49:47;;;;;;;9.18;8.07;;;;;;;;;;5058724;28;20395;-68
2024/03/20 10:52:14;;;;;;;9.63;7.70;;;;;;;;;;5050775;28;20040;-68
2024/03/20 10:54:40;;;;;;;12.63;9.52;;;;;;;;;;5051145;28;20131;-69
2024/03/20 10:57:06;;;;;;;9.50;8.38;;;;;;;;;;5052604;28;20036;-66
2024/03/20 10:59:34;;;;;;;12.98;7.80;;;;;;;;;;5052080;28;20017;-69
2024/03/20 11:02:13;;;;;;;9.75;8.13;;;;;;;;;;5052879;28;20027;-69
2024/03/20 11:04:41;;;;;;;10.80;7.03;;;;;;;;;;5059396;28;20399;-68
2024/03/20 11:07:23;;;;;;;11.90;8.05;;;;;;;;;;5059038;28;20021;-68
2024/03/20 11:09:50;;;;;;;13.30;7.70;;;;;;;;;;5050861;28;20047;-67
2024/03/20 11:12:25;;;;;;;10.63;7.88;;;;;;;;;;5050099;28;20048;-67
2024/03/20 11:14:51;;;;;;;12.45;7.45;;;;;;;;;;5050589;28;20501;-68
2024/03/20 11:17:17;;;;;;;13.63;7.13;;;;;;;;;;5050218;28;20033;-68
2024/03/20 11:19:44;;;;;;;12.10;7.13;;;;;;;;;;5050607;28;20082;-68
2024/03/20 11:22:23;;;;;;;14.05;7.57;;;;;;;;;;5049947;28;20390;-68
2024/03/20 11:24:53;;;;;;;11.70;6.88;;;;;;;;;;5050959;28;20018;-68
2024/03/20 11:27:19;;;;;;;10.93;7.07;;;;;;;;;;5050753;28;20090;-68
2024/03/20 11:29:45;;;;;;;8.68;6.70;;;;;;;;;;5051274;28;20375;-68
2024/03/20 11:32:15;;;;;;;14.75;6.82;;;;;;;;;;5049885;28;20034;-69
2024/03/20 11:34:42;;;;;;;7.57;6.03;;;;;;;;;;5049877;28;20033;-68
2024/03/20 11:37:14;;;;;;;14.63;6.38;;;;;;;;;;5055498;28;20060;-68
2024/03/20 11:39:41;;;;;;;6.60;5.90;;;;;;;;;;5051016;28;20021;-68
2024/03/20 11:42:07;;;;;;;16.00;6.47;;;;;;;;;;5049741;28;20047;-68
2024/03/20 11:44:33;;;;;;;8.35;5.28;;;;;;;;;;5053449;28;20036;-68
2024/03/20 11:47:00;;;;;;;6.38;5.03;;;;;;;;;;5070778;28;20032;-68
2024/03/20 11:49:26;;;;;;;8.50;5.28;;;;;;;;;;5067799;28;20035;-69
2024/03/20 11:51:52;;;;;;;10.68;4.45;;;;;;;;;;5049693;28;20061;-69
2024/03/20 11:54:19;;;;;;;5.20;3.78;;;;;;;;;;5049834;28;20515;-68
2024/03/20 11:56:50;;;;;;;7.38;5.07;;;;;;;;;;5049915;28;20029;-69
2024/03/20 11:59:18;;;;;;;6.87;4.10;;;;;;;;;;5050271;28;20040;-68
2024/03/20 12:01:45;;;;;;;6.85;4.80;;;;;;;;;;5051132;28;20048;-68
2024/03/20 12:04:11;;;;;;;6.25;4.22;;;;;;;;;;5052944;28;20040;-69
2024/03/20 12:06:37;;;;;;;6.75;4.70;;;;;;;;;;5053937;28;20029;-67
2024/03/20 12:09:16;;;;;;;11.55;4.75;;;;;;;;;;5054144;28;20557;-68
2024/03/20 12:11:43;;;;;;;9.43;4.80;;;;;;;;;;5052867;28;20109;-68
2024/03/20 12:14:09;;;;;;;15.23;4.40;;;;;;;;;;5053599;28;20491;-67
2024/03/20 12:16:36;;;;;;;6.15;3.50;;;;;;;;;;5053479;28;20029;-68
2024/03/20 12:19:03;;;;;;;6.05;4.00;;;;;;;;;;5054016;28;20043;-67
2024/03/20 12:21:29;;;;;;;11.80;4.75;;;;;;;;;;5052046;28;20430;-68
2024/03/20 12:23:55;;;;;;;4.70;4.05;;;;;;;;;;5058289;28;20032;-68
2024/03/20 12:26:25;;;;;;;6.25;3.95;;;;;;;;;;5072691;28;20020;-68
2024/03/20 12:28:52;;;;;;;8.77;4.10;;;;;;;;;;5073898;28;20048;-68
2024/03/20 12:31:22;;;;;;;7.68;3.85;;;;;;;;;;5071529;28;20093;-68
2024/03/20 12:33:50;;;;;;;7.45;4.20;;;;;;;;;;5073744;28;20027;-68
2024/03/20 12:36:16;;;;;;;7.28;3.65;;;;;;;;;;5071939;28;20359;-68
2024/03/20 12:38:43;;;;;;;9.43;4.32;;;;;;;;;;5073316;28;20465;-70
2024/03/20 12:41:09;;;;;;;12.88;4.80;;;;;;;;;;5072669;28;20271;-69
2024/03/20 12:43:36;;;;;;;6.05;3.65;;;;;;;;;;5071240;28;20017;-69
2024/03/20 12:46:02;;;;;;;6.82;4.10;;;;;;;;;;5073160;28;20095;-67
2024/03/20 12:48:28;;;;;;;7.30;3.78;;;;;;;;;;5072957;28;20103;-68
2024/03/20 12:50:55;;;;;;;4.38;3.40;;;;;;;;;;5072351;28;20368;-69
2024/03/20 12:53:21;;;;;;;5.88;3.33;;;;;;;;;;5092156;22;20455;-73
2024/03/20 12:55:47;;;;;;;5.30;3.13;;;;;;;;;;5095669;28;20047;-72
2024/03/20 12:58:15;;;;;;;9.20;3.05;;;;;;;;;;5070215;28;20028;-72
2024/03/20 13:00:44;;;;;;;4.95;2.90;;;;;;;;;;5084058;28;20028;-71
2024/03/20 13:03:16;;;;;;;5.65;3.30;;;;;;;;;;5075354;28;20031;-72
2024/03/20 13:05:43;;;;;;;4.22;3.05;;;;;;;;;;5076643;28;20401;-73
2024/03/20 13:08:13;;;;;;;5.22;3.13;;;;;;;;;;5072088;28;20039;-72
2024/03/20 13:10:39;;;;;;;5.10;3.45;;;;;;;;;;5073424;28;20024;-72
2024/03/20 13:13:05;;;;;;;16.08;2.60;;;;;;;;;;5092874;28;20023;-72
2024/03/20 13:15:31;;;;;;;9.35;3.40;;;;;;;;;;5092797;28;20042;-71
2024/03/20 13:17:57;;;;;;;3.95;2.47;;;;;;;;;;5094048;28;20055;-71
2024/03/20 13:20:27;;;;;;;6.43;2.50;;;;;;;;;;5093535;28;20027;-72
2024/03/20 13:22:53;;;;;;;3.90;3.05;;;;;;;;;;5073289;28;20047;-72
2024/03/20 13:25:22;;;;;;;4.45;2.42;;;;;;;;;;5095740;28;20062;-72
2024/03/20 13:27:48;;;;;;;5.05;3.22;;;;;;;;;;5094097;28;20100;-72
2024/03/20 13:30:14;;;;;;;7.55;3.22;;;;;;;;;;5093060;28;20454;-72
2024/03/20 13:32:42;;;;;;;6.00;3.05;;;;;;;;;;5093327;28;20367;-73
2024/03/20 13:35:11;;;;;;;5.75;2.85;;;;;;;;;;5090830;28;20020;-73
2024/03/20 13:37:40;;;;;;;4.70;3.17;;;;;;;;;;5086477;28;20078;-72
2024/03/20 13:40:32;;;;;;;5.18;3.03;;;;;;;;;;5073575;28;20029;-72
2024/03/20 13:45:52;;;;;;;5.28;2.63;;;;;;;;;;5088675;28;20043;-74
2024/03/20 13:48:19;;;;;;;8.77;3.20;;;;;;;;;;5077049;28;20033;-73
2024/03/20 13:50:45;;;;;;;7.93;2.88;;;;;;;;;;5087526;28;20383;-73
2024/03/20 13:53:11;;;;;;;9.90;2.95;;;;;;;;;;5080832;28;20031;-73
2024/03/20 13:55:37;;;;;;;4.40;2.90;;;;;;;;;;5061948;28;20451;-73
2024/03/20 13:58:03;;;;;;;3.33;2.53;;;;;;;;;;5070915;28;20051;-73
2024/03/20 14:00:30;;;;;;;4.00;2.53;;;;;;;;;;5055003;28;20042;-72
2024/03/20 14:02:56;;;;;;;4.28;2.15;;;;;;;;;;5079432;28;20046;-73
2024/03/20 14:05:22;;;;;;;4.43;2.95;;;;;;;;;;5081847;28;20341;-73
2024/03/20 14:07:48;;;;;;;5.55;2.05;;;;;;;;;;5086918;28;20028;-73
2024/03/20 14:10:15;;;;;;;4.63;2.47;;;;;;;;;;5075213;28;20028;-73
2024/03/20 14:12:42;;;;;;;4.63;3.20;;;;;;;;;;5086764;28;20028;-73
2024/03/20 14:15:15;;;;;;;6.35;3.22;;;;;;;;;;5080449;28;20031;-73
2024/03/20 14:17:42;;;;;;;3.63;1.98;;;;;;;;;;5092042;28;20081;-73
2024/03/20 14:20:13;;;;;;;5.22;2.22;;;;;;;;;;5092324;28;20119;-73
2024/03/20 14:22:41;;;;;;;5.75;2.28;;;;;;;;;;5067097;28;20021;-72
2024/03/20 14:25:25;;;;;;;4.20;2.30;;;;;;;;;;5072653;28;20025;-72
2024/03/20 14:27:51;;;;;;;5.78;2.05;;;;;;;;;;5073232;28;20082;-73